Stalwart, Michigan
Current Conditions -  °F | °C
As of 4:55 AM on Friday 19 Dec 2014 (Local Time) from KCIU Reporting Station
Clear Clear  
Wind Chill:   Ceiling: Unl
Heat Index: 10°   Visibility: 10mi
Dew Point:   Wind: 5mph
Humidity: 92%   Direction: 20°NNE
Pressure: 30.24"   Gusts: NA
Location:  46.1219°N, 84.1444°W
Report Text: KCIU 190955Z AUTO 02004KT 10SM CLR M12/M13 A3024 RMK AO1
Loading
Personal Weather Stations






























Interactive Weather Map New forecast layout! Learn more

10-Day Weather Forecast

Advertisements
Track Severe Weather on mobile